Time;durP1;ratioP1;P1;durP2;ratioP2;P2;SDS_P1;SDS_P2;PMS_P1;PMS_P2;Temp;Humidity;BMP_temperature;BMP_pressure;BME280_temperature;BME280_humidity;BME280_pressure;Samples;Min_cycle;Max_cycle;Signal;HPM_P1;HPM_P2
2022/05/03 00:02:11;;;;;;;;;;;;;;;;;;5034380;28;20058;-72
2022/05/03 00:04:50;;;;;;;8.25;5.88;;;;;;;;;;5033045;28;46825;-73
2022/05/03 00:07:39;;;;;;;6.38;4.05;;;;;;;;;;5034899;28;20179;-73
2022/05/03 00:10:07;;;;;;;5.78;4.03;;;;;;;;;;5032189;28;20056;-72
2022/05/03 00:12:39;;;;;;;6.65;3.90;;;;;;;;;;5035498;28;20509;-72
2022/05/03 00:15:06;;;;;;;7.18;4.70;;;;;;;;;;5033136;28;20060;-73
2022/05/03 00:17:32;;;;;;;5.93;4.55;;;;;;;;;;5032001;28;20452;-72
2022/05/03 00:19:59;;;;;;;6.50;4.35;;;;;;;;;;5032508;28;20065;-72
2022/05/03 00:22:25;;;;;;;5.82;4.95;;;;;;;;;;5032869;28;20062;-71
2022/05/03 00:24:54;;;;;;;4.93;4.20;;;;;;;;;;5034426;28;20065;-72
2022/05/03 00:27:28;;;;;;;5.80;4.50;;;;;;;;;;5034403;28;20057;-71
2022/05/03 00:29:55;;;;;;;6.63;4.25;;;;;;;;;;5031305;28;20053;-72
2022/05/03 00:32:22;;;;;;;6.35;4.53;;;;;;;;;;5033325;28;20060;-73
2022/05/03 00:34:51;;;;;;;6.07;4.30;;;;;;;;;;5032104;28;20418;-72
2022/05/03 00:37:18;;;;;;;5.60;4.55;;;;;;;;;;5033869;28;20108;-72
2022/05/03 00:39:44;;;;;;;4.95;4.43;;;;;;;;;;5034293;28;20060;-72
2022/05/03 00:42:15;;;;;;;5.88;4.85;;;;;;;;;;5031730;28;20160;-72
2022/05/03 00:44:58;;;;;;;7.90;4.25;;;;;;;;;;5033364;28;20057;-72
2022/05/03 00:47:45;;;;;;;5.32;4.68;;;;;;;;;;5033544;28;20060;-72
2022/05/03 00:50:19;;;;;;;7.57;4.97;;;;;;;;;;5034197;28;20052;-72
2022/05/03 00:52:56;;;;;;;4.63;4.00;;;;;;;;;;5032635;28;20524;-72
2022/05/03 00:55:35;;;;;;;7.55;4.57;;;;;;;;;;5033097;28;20060;-72
2022/05/03 00:58:12;;;;;;;6.18;4.53;;;;;;;;;;5032461;28;20060;-72
2022/05/03 01:00:42;;;;;;;5.53;4.60;;;;;;;;;;5025030;28;20054;-73
2022/05/03 01:03:20;;;;;;;7.03;4.78;;;;;;;;;;5025162;28;20054;-72
2022/05/03 01:06:05;;;;;;;5.80;4.88;;;;;;;;;;5034385;28;20046;-72
2022/05/03 01:08:46;;;;;;;5.15;4.45;;;;;;;;;;5032164;28;20080;-72
2022/05/03 01:11:18;;;;;;;5.80;5.13;;;;;;;;;;5031662;28;20050;-72
2022/05/03 01:13:47;;;;;;;7.05;5.25;;;;;;;;;;5031608;28;20054;-72
2022/05/03 01:16:27;;;;;;;6.25;4.90;;;;;;;;;;5032278;28;20498;-73
2022/05/03 01:18:55;;;;;;;6.97;5.30;;;;;;;;;;5032809;28;20062;-72
2022/05/03 01:21:39;;;;;;;6.88;5.68;;;;;;;;;;5033241;28;20069;-72
2022/05/03 01:24:35;;;;;;;5.20;4.65;;;;;;;;;;5031257;28;20065;-72
2022/05/03 01:27:14;;;;;;;7.15;5.53;;;;;;;;;;5030724;28;20529;-72
2022/05/03 01:29:44;;;;;;;6.43;5.78;;;;;;;;;;5032353;28;20486;-72
2022/05/03 01:32:11;;;;;;;8.65;6.13;;;;;;;;;;5032275;28;20058;-72
2022/05/03 01:34:40;;;;;;;8.60;5.60;;;;;;;;;;5032906;28;20502;-72
2022/05/03 01:37:12;;;;;;;11.52;6.30;;;;;;;;;;5032892;28;20049;-72
2022/05/03 01:39:45;;;;;;;7.30;6.32;;;;;;;;;;5032783;28;20049;-73
2022/05/03 01:42:30;;;;;;;10.43;6.25;;;;;;;;;;5030143;28;20473;-73
2022/05/03 01:44:59;;;;;;;6.85;6.15;;;;;;;;;;5032614;28;20061;-72
2022/05/03 01:47:30;;;;;;;6.63;5.95;;;;;;;;;;5031496;28;20500;-72
2022/05/03 01:50:18;;;;;;;9.27;6.47;;;;;;;;;;5032800;28;20486;-72
2022/05/03 01:53:05;;;;;;;12.18;6.75;;;;;;;;;;5032109;28;20058;-72
2022/05/03 01:55:50;;;;;;;8.45;6.65;;;;;;;;;;5032887;28;20417;-72
2022/05/03 01:58:34;;;;;;;9.97;7.17;;;;;;;;;;5030341;28;20050;-72
2022/05/03 02:01:00;;;;;;;8.68;6.82;;;;;;;;;;5031226;28;20527;-72
2022/05/03 02:03:34;;;;;;;8.90;6.75;;;;;;;;;;5032822;28;20081;-72
2022/05/03 02:06:10;;;;;;;7.63;6.82;;;;;;;;;;5033619;28;20064;-72
2022/05/03 02:08:55;;;;;;;7.90;7.10;;;;;;;;;;5030521;28;20053;-72
2022/05/03 02:11:27;;;;;;;8.10;6.50;;;;;;;;;;5031829;28;20060;-72
2022/05/03 02:16:59;;;;;;;7.30;6.43;;;;;;;;;;5032363;28;20056;-73
2022/05/03 02:19:43;;;;;;;9.18;6.70;;;;;;;;;;5031118;28;20112;-72
2022/05/03 02:22:19;;;;;;;7.47;6.70;;;;;;;;;;5031723;28;20057;-73
2022/05/03 02:24:45;;;;;;;;;;;;;;;;;;5032348;28;20050;-72
2022/05/03 02:27:13;;;;;;;;;;;;;;;;;;5031832;28;43222;-72
2022/05/03 02:29:45;;;;;;;8.57;7.43;;;;;;;;;;5031787;28;45739;-73
2022/05/03 02:32:14;;;;;;;8.38;6.90;;;;;;;;;;5032125;28;20061;-72
2022/05/03 02:34:40;;;;;;;8.77;7.15;;;;;;;;;;5031140;28;20058;-72
2022/05/03 02:37:33;;;;;;;7.68;6.97;;;;;;;;;;5032370;28;20050;-72
2022/05/03 02:40:00;;;;;;;10.98;7.55;;;;;;;;;;5026894;28;20050;-72
2022/05/03 02:42:27;;;;;;;7.70;6.90;;;;;;;;;;5032270;28;20060;-72
2022/05/03 02:44:55;;;;;;;10.07;7.70;;;;;;;;;;5031532;28;20050;-72
2022/05/03 02:47:43;;;;;;;8.45;7.18;;;;;;;;;;5030469;28;20640;-71
2022/05/03 02:50:12;;;;;;;8.52;6.43;;;;;;;;;;5031600;28;20058;-73
2022/05/03 02:52:57;;;;;;;9.27;7.60;;;;;;;;;;5030371;28;20087;-71
2022/05/03 02:55:23;;;;;;;8.65;7.13;;;;;;;;;;5029742;28;20056;-72
2022/05/03 02:58:14;;;;;;;8.55;7.07;;;;;;;;;;5030747;28;20054;-71
2022/05/03 03:03:51;;;;;;;8.77;7.55;;;;;;;;;;5015245;28;20116;-72
2022/05/03 03:06:20;;;;;;;8.00;7.20;;;;;;;;;;5017878;28;20120;-72
2022/05/03 03:08:48;;;;;;;8.52;6.88;;;;;;;;;;5034098;28;20064;-73
2022/05/03 03:11:29;;;;;;;8.57;6.97;;;;;;;;;;5034825;28;20058;-72
2022/05/03 03:14:05;;;;;;;12.35;8.30;;;;;;;;;;5035393;28;20057;-73
2022/05/03 03:16:32;;;;;;;9.45;7.60;;;;;;;;;;5035834;28;20054;-72
2022/05/03 03:19:02;;;;;;;9.93;7.68;;;;;;;;;;5035196;28;20133;-72
2022/05/03 03:21:32;;;;;;;10.20;7.82;;;;;;;;;;5035791;28;20054;-72
2022/05/03 03:23:59;;;;;;;8.50;6.85;;;;;;;;;;5033789;28;20062;-71
2022/05/03 03:26:28;;;;;;;8.43;7.50;;;;;;;;;;5034181;28;20414;-72
2022/05/03 03:28:57;;;;;;;11.60;7.70;;;;;;;;;;5035774;28;20060;-72
2022/05/03 03:31:25;;;;;;;13.90;7.72;;;;;;;;;;5036121;28;20060;-72
2022/05/03 03:33:53;;;;;;;8.43;7.57;;;;;;;;;;5031224;28;20053;-72
2022/05/03 03:36:22;;;;;;;11.95;7.85;;;;;;;;;;5036021;28;20504;-72
2022/05/03 03:38:48;;;;;;;9.00;7.75;;;;;;;;;;5034284;28;20050;-72
2022/05/03 03:41:15;;;;;;;11.93;8.60;;;;;;;;;;5032935;28;20060;-72
2022/05/03 03:43:45;;;;;;;9.30;8.30;;;;;;;;;;5035639;28;20050;-72
2022/05/03 03:46:11;;;;;;;11.77;8.70;;;;;;;;;;5035134;28;20053;-72
2022/05/03 03:48:38;;;;;;;9.23;7.95;;;;;;;;;;5033415;28;20054;-72
2022/05/03 03:51:05;;;;;;;9.65;8.30;;;;;;;;;;5035123;28;20061;-72
2022/05/03 03:53:32;;;;;;;12.07;8.63;;;;;;;;;;5032527;28;20134;-72
2022/05/03 03:55:59;;;;;;;12.98;9.18;;;;;;;;;;5034520;28;20094;-72
2022/05/03 03:58:26;;;;;;;11.05;8.90;;;;;;;;;;5031930;28;20058;-72
2022/05/03 04:00:52;;;;;;;13.38;9.40;;;;;;;;;;5033841;28;20140;-71
2022/05/03 04:03:19;;;;;;;14.30;9.77;;;;;;;;;;5033991;28;20065;-71
2022/05/03 04:05:46;;;;;;;11.27;9.10;;;;;;;;;;5035041;28;20061;-71
2022/05/03 04:08:18;;;;;;;12.10;9.82;;;;;;;;;;5033353;28;20050;-71
2022/05/03 04:10:45;;;;;;;10.75;9.10;;;;;;;;;;5033796;28;20137;-70
2022/05/03 04:13:14;;;;;;;10.50;8.93;;;;;;;;;;5035504;28;20137;-71
2022/05/03 04:15:40;;;;;;;10.27;8.90;;;;;;;;;;5033615;28;20145;-71
2022/05/03 04:18:07;;;;;;;13.02;8.90;;;;;;;;;;5034339;28;20062;-71
2022/05/03 04:20:34;;;;;;;13.98;10.05;;;;;;;;;;5034613;28;20042;-71
2022/05/03 04:23:01;;;;;;;10.85;9.45;;;;;;;;;;5034579;28;20144;-71
2022/05/03 04:25:27;;;;;;;11.15;9.30;;;;;;;;;;5018791;28;20066;-71
2022/05/03 04:27:53;;;;;;;10.90;8.80;;;;;;;;;;5025556;28;20061;-71
2022/05/03 04:30:20;;;;;;;12.18;8.55;;;;;;;;;;5025757;28;20056;-71
2022/05/03 04:32:46;;;;;;;12.20;9.32;;;;;;;;;;5032440;28;20049;-71
2022/05/03 04:35:12;;;;;;;10.38;8.48;;;;;;;;;;5034731;28;20060;-71
2022/05/03 04:37:39;;;;;;;13.80;9.57;;;;;;;;;;5032336;28;20060;-71
2022/05/03 04:40:05;;;;;;;12.27;8.52;;;;;;;;;;5033627;28;20089;-71
2022/05/03 04:42:32;;;;;;;9.43;8.43;;;;;;;;;;5034604;28;20058;-72
2022/05/03 04:44:58;;;;;;;11.13;8.80;;;;;;;;;;5033483;28;20049;-72
2022/05/03 04:47:24;;;;;;;10.93;9.18;;;;;;;;;;5032295;28;20508;-72
2022/05/03 04:49:50;;;;;;;10.68;8.45;;;;;;;;;;5033743;28;20057;-71
2022/05/03 04:52:17;;;;;;;8.18;7.35;;;;;;;;;;5033476;28;20069;-71
2022/05/03 04:54:44;;;;;;;11.20;8.27;;;;;;;;;;5033285;28;20054;-71
2022/05/03 04:57:10;;;;;;;12.18;8.40;;;;;;;;;;5034694;28;20063;-71
2022/05/03 04:59:38;;;;;;;11.38;8.05;;;;;;;;;;5032565;28;20060;-72
2022/05/03 05:02:04;;;;;;;11.68;8.52;;;;;;;;;;5028896;28;20054;-69
2022/05/03 05:04:30;;;;;;;15.93;8.30;;;;;;;;;;5033760;28;20054;-71
2022/05/03 05:06:57;;;;;;;11.73;8.05;;;;;;;;;;5033945;28;20079;-69
2022/05/03 05:09:23;;;;;;;8.68;7.78;;;;;;;;;;5033570;28;20547;-69
2022/05/03 05:11:49;;;;;;;10.50;7.70;;;;;;;;;;5034046;28;20506;-69
2022/05/03 05:14:19;;;;;;;9.20;7.25;;;;;;;;;;5033723;28;20056;-69
2022/05/03 05:16:46;;;;;;;9.13;7.20;;;;;;;;;;5029684;28;20081;-69
2022/05/03 05:19:13;;;;;;;10.20;7.03;;;;;;;;;;5034084;28;20553;-70
2022/05/03 05:21:39;;;;;;;9.18;7.43;;;;;;;;;;5029203;28;20558;-70
2022/05/03 05:24:10;;;;;;;7.93;6.90;;;;;;;;;;5032468;28;20064;-71
2022/05/03 05:26:36;;;;;;;12.73;7.55;;;;;;;;;;5028965;28;20108;-70
2022/05/03 05:29:02;;;;;;;9.55;7.20;;;;;;;;;;5033466;28;20076;-70
2022/05/03 05:31:29;;;;;;;10.77;7.40;;;;;;;;;;5029915;28;20050;-70
2022/05/03 05:33:55;;;;;;;11.05;7.38;;;;;;;;;;5032388;28;20054;-70
2022/05/03 05:36:21;;;;;;;9.13;7.88;;;;;;;;;;5033253;28;20053;-70
2022/05/03 05:38:48;;;;;;;9.70;7.35;;;;;;;;;;5031223;28;20084;-70
2022/05/03 05:41:14;;;;;;;9.70;7.30;;;;;;;;;;5028890;28;20093;-70
2022/05/03 05:43:42;;;;;;;10.38;7.65;;;;;;;;;;5024543;28;20523;-70
2022/05/03 05:46:09;;;;;;;8.85;6.63;;;;;;;;;;5033351;28;20081;-71
2022/05/03 05:48:37;;;;;;;9.20;7.35;;;;;;;;;;5032720;28;20058;-70
2022/05/03 05:51:04;;;;;;;11.98;6.72;;;;;;;;;;5032738;28;20066;-70
2022/05/03 05:53:33;;;;;;;8.88;6.72;;;;;;;;;;5033160;28;20506;-70
2022/05/03 05:56:03;;;;;;;11.27;7.82;;;;;;;;;;5030641;28;20501;-72
2022/05/03 05:58:30;;;;;;;12.40;7.32;;;;;;;;;;5033194;28;20060;-71
2022/05/03 06:00:56;;;;;;;8.38;6.88;;;;;;;;;;5033151;28;20128;-70
2022/05/03 06:03:23;;;;;;;9.05;6.90;;;;;;;;;;5013895;28;20502;-72
2022/05/03 06:05:49;;;;;;;12.88;8.60;;;;;;;;;;5013763;28;20057;-70
2022/05/03 06:08:16;;;;;;;12.05;7.78;;;;;;;;;;5027916;28;20058;-83
2022/05/03 06:10:42;;;;;;;14.68;9.10;;;;;;;;;;5032947;28;20503;-68
2022/05/03 06:13:10;;;;;;;10.13;8.80;;;;;;;;;;5032826;28;20141;-69
2022/05/03 06:15:37;;;;;;;10.45;8.85;;;;;;;;;;5032215;28;20060;-72
2022/05/03 06:18:04;;;;;;;12.00;9.75;;;;;;;;;;5033076;28;20049;-69
2022/05/03 06:20:30;;;;;;;14.82;8.38;;;;;;;;;;5031255;28;20053;-69
2022/05/03 06:22:57;;;;;;;10.73;9.50;;;;;;;;;;5032927;28;20129;-69
2022/05/03 06:25:23;;;;;;;12.35;8.88;;;;;;;;;;5032974;28;20476;-70
2022/05/03 06:27:53;;;;;;;14.45;10.43;;;;;;;;;;5033106;28;20060;-71
2022/05/03 06:30:20;;;;;;;13.93;11.38;;;;;;;;;;5027673;28;20065;-72
2022/05/03 06:32:46;;;;;;;20.75;12.80;;;;;;;;;;5032935;28;20057;-70
2022/05/03 06:35:12;;;;;;;20.50;14.55;;;;;;;;;;5033617;28;20058;-71
2022/05/03 06:37:40;;;;;;;21.08;15.07;;;;;;;;;;5036210;28;20056;-69
2022/05/03 06:40:08;;;;;;;17.98;14.55;;;;;;;;;;5036272;28;20057;-71
2022/05/03 06:42:35;;;;;;;21.63;16.33;;;;;;;;;;5036252;28;20054;-73
2022/05/03 06:45:02;;;;;;;24.67;15.98;;;;;;;;;;5034912;28;20054;-72
2022/05/03 06:47:29;;;;;;;25.00;16.52;;;;;;;;;;5036060;28;20049;-71
2022/05/03 06:49:55;;;;;;;29.92;18.23;;;;;;;;;;5036334;28;20148;-71
2022/05/03 06:52:23;;;;;;;28.08;19.33;;;;;;;;;;5034574;28;20064;-72
2022/05/03 06:54:49;;;;;;;27.95;18.10;;;;;;;;;;5035517;28;20060;-70
2022/05/03 06:57:16;;;;;;;31.77;18.70;;;;;;;;;;5035988;28;20060;-71
2022/05/03 06:59:42;;;;;;;22.63;18.08;;;;;;;;;;5033844;28;20502;-71
2022/05/03 07:02:09;;;;;;;24.88;19.50;;;;;;;;;;5036182;28;20061;-71
2022/05/03 07:04:35;;;;;;;27.65;20.40;;;;;;;;;;5035555;28;20050;-72
2022/05/03 07:07:01;;;;;;;31.23;20.17;;;;;;;;;;5035264;28;20089;-70
2022/05/03 07:09:28;;;;;;;27.83;20.05;;;;;;;;;;5033035;28;20050;-71
2022/05/03 07:11:54;;;;;;;29.33;21.02;;;;;;;;;;5034960;28;20054;-71
2022/05/03 07:14:22;;;;;;;31.80;22.50;;;;;;;;;;5034922;28;20058;-70
2022/05/03 07:16:48;;;;;;;33.20;21.60;;;;;;;;;;5026388;28;20115;-70
2022/05/03 07:24:45;;;;;;;33.00;23.17;;;;;;;;;;5025839;28;20658;-72
2022/05/03 07:27:13;;;;;;;31.33;21.67;;;;;;;;;;5026120;28;20058;-69
2022/05/03 07:29:39;;;;;;;30.45;22.23;;;;;;;;;;5024856;28;20056;-70
2022/05/03 07:32:06;;;;;;;26.63;21.42;;;;;;;;;;5017560;28;20375;-69
2022/05/03 07:34:32;;;;;;;28.35;20.98;;;;;;;;;;5021356;28;20137;-73
2022/05/03 07:36:58;;;;;;;27.10;21.20;;;;;;;;;;5029370;28;20516;-71
2022/05/03 07:39:25;;;;;;;27.67;19.60;;;;;;;;;;5029452;28;20141;-70
2022/05/03 07:41:53;;;;;;;29.52;21.50;;;;;;;;;;5024302;28;20060;-71
2022/05/03 07:44:20;;;;;;;28.23;20.58;;;;;;;;;;5020426;28;20062;-71
2022/05/03 07:46:46;;;;;;;27.60;20.80;;;;;;;;;;5033637;28;20053;-70
2022/05/03 07:49:12;;;;;;;31.52;22.30;;;;;;;;;;5030024;28;20153;-71
2022/05/03 07:51:40;;;;;;;29.50;22.77;;;;;;;;;;5021487;28;20081;-70
2022/05/03 07:54:06;;;;;;;27.58;21.52;;;;;;;;;;5024149;28;20054;-70
2022/05/03 07:56:33;;;;;;;29.05;20.90;;;;;;;;;;5024054;28;20062;-70
2022/05/03 07:58:59;;;;;;;32.58;22.05;;;;;;;;;;5026094;28;20105;-70
2022/05/03 08:01:25;;;;;;;33.80;23.52;;;;;;;;;;5031667;28;20054;-69
2022/05/03 08:03:51;;;;;;;30.23;23.05;;;;;;;;;;5029248;28;20057;-69
2022/05/03 08:06:18;;;;;;;31.50;22.88;;;;;;;;;;5028457;28;20056;-71
2022/05/03 08:08:44;;;;;;;30.15;22.77;;;;;;;;;;5032529;28;20088;-69
2022/05/03 08:11:11;;;;;;;31.70;22.30;;;;;;;;;;5025639;28;20057;-71
2022/05/03 08:13:37;;;;;;;29.05;22.42;;;;;;;;;;5032476;28;20054;-69
2022/05/03 08:16:03;;;;;;;32.08;23.63;;;;;;;;;;5034232;28;20157;-70
2022/05/03 08:18:30;;;;;;;31.00;22.33;;;;;;;;;;5028953;28;20137;-70
2022/05/03 08:20:56;;;;;;;30.70;21.98;;;;;;;;;;5033473;28;20057;-69
2022/05/03 08:23:22;;;;;;;32.75;22.55;;;;;;;;;;5033896;28;20057;-70
2022/05/03 08:25:49;;;;;;;29.05;22.00;;;;;;;;;;5033261;28;20057;-71
2022/05/03 08:28:15;;;;;;;29.60;22.55;;;;;;;;;;5032738;28;20512;-73
2022/05/03 08:30:42;;;;;;;35.50;22.65;;;;;;;;;;5033934;28;20152;-68
2022/05/03 08:33:08;;;;;;;26.02;20.42;;;;;;;;;;5024653;28;20706;-69
2022/05/03 08:35:34;;;;;;;29.17;22.25;;;;;;;;;;5033135;28;20050;-68
2022/05/03 08:43:36;;;;;;;25.08;20.45;;;;;;;;;;5033488;28;20049;-69
2022/05/03 08:46:06;;;;;;;28.02;21.20;;;;;;;;;;5033247;28;20058;-70
2022/05/03 08:48:35;;;;;;;28.45;22.38;;;;;;;;;;5033773;28;20058;-68
2022/05/03 08:51:01;;;;;;;28.95;21.80;;;;;;;;;;5030034;28;20399;-70
2022/05/03 08:53:27;;;;;;;32.50;22.00;;;;;;;;;;5028021;28;20054;-69
2022/05/03 08:55:54;;;;;;;26.27;20.48;;;;;;;;;;5030805;28;20050;-70
2022/05/03 08:58:21;;;;;;;26.52;20.15;;;;;;;;;;5031483;28;20060;-69
2022/05/03 09:00:48;;;;;;;24.73;19.73;;;;;;;;;;5030408;28;20064;-69
2022/05/03 09:03:15;;;;;;;25.77;19.38;;;;;;;;;;5030644;28;20054;-68
2022/05/03 09:05:45;;;;;;;27.13;20.20;;;;;;;;;;5032872;28;20050;-68
2022/05/03 09:08:12;;;;;;;28.55;20.13;;;;;;;;;;5031674;28;20054;-69
2022/05/03 09:10:38;;;;;;;28.67;22.45;;;;;;;;;;5033647;28;20391;-69
2022/05/03 09:13:25;;;;;;;28.40;21.13;;;;;;;;;;5028058;28;20402;-68
2022/05/03 09:15:55;;;;;;;28.42;21.10;;;;;;;;;;5034175;28;20054;-69
2022/05/03 09:18:26;;;;;;;30.60;21.88;;;;;;;;;;5023278;28;20054;-69
2022/05/03 09:23:46;;;;;;;32.38;22.85;;;;;;;;;;5025883;28;20058;-68
2022/05/03 09:26:14;;;;;;;32.83;21.73;;;;;;;;;;5031530;28;20064;-67
2022/05/03 09:28:53;;;;;;;31.20;22.63;;;;;;;;;;5029696;28;20050;-68
2022/05/03 09:31:39;;;;;;;28.52;20.80;;;;;;;;;;5024641;28;20508;-70
2022/05/03 09:34:05;;;;;;;;;;;;;;;;;;5036962;28;20057;-70
2022/05/03 09:36:42;;;;;;;29.10;20.27;;;;;;;;;;5022586;28;45391;-69
2022/05/03 09:39:28;;;;;;;30.92;21.83;;;;;;;;;;5021953;28;20057;-68
2022/05/03 09:42:10;;;;;;;30.70;21.95;;;;;;;;;;5020585;28;20061;-70
2022/05/03 09:44:40;;;;;;;30.80;21.90;;;;;;;;;;5030312;28;20085;-67
2022/05/03 09:47:10;;;;;;;26.63;20.08;;;;;;;;;;5033445;28;20038;-68
2022/05/03 09:49:38;;;;;;;26.75;20.92;;;;;;;;;;5032792;28;20081;-68
2022/05/03 09:52:32;;;;;;;30.63;21.77;;;;;;;;;;5032310;28;20066;-68
2022/05/03 09:54:59;;;;;;;28.10;21.33;;;;;;;;;;5024190;28;20057;-70
2022/05/03 09:57:28;;;;;;;26.52;20.17;;;;;;;;;;5030790;28;20144;-69
2022/05/03 09:59:54;;;;;;;25.33;19.48;;;;;;;;;;5029831;28;20540;-69
2022/05/03 10:02:22;;;;;;;27.25;19.30;;;;;;;;;;5033453;28;20054;-69
2022/05/03 10:04:50;;;;;;;24.70;16.70;;;;;;;;;;5032296;28;20141;-70
2022/05/03 10:07:16;;;;;;;23.27;17.92;;;;;;;;;;5032765;28;20046;-69
2022/05/03 10:09:43;;;;;;;22.77;17.67;;;;;;;;;;5030393;28;20053;-70
2022/05/03 10:12:10;;;;;;;30.08;20.40;;;;;;;;;;5032016;28;20050;-70
2022/05/03 10:14:36;;;;;;;22.17;17.35;;;;;;;;;;5032537;28;20053;-70
2022/05/03 10:22:59;;;;;;;25.08;19.25;;;;;;;;;;5025297;28;20475;-71
2022/05/03 10:25:29;;;;;;;23.75;19.25;;;;;;;;;;5031737;28;20502;-71
2022/05/03 10:27:57;;;;;;;27.65;18.92;;;;;;;;;;5032430;28;20473;-71
2022/05/03 10:30:24;;;;;;;24.92;19.02;;;;;;;;;;5032223;28;20064;-70
2022/05/03 10:33:10;;;;;;;24.58;18.45;;;;;;;;;;5033079;28;20064;-69
2022/05/03 10:35:37;;;;;;;26.35;18.27;;;;;;;;;;5031794;28;20064;-71
2022/05/03 10:38:04;;;;;;;22.55;17.80;;;;;;;;;;5032397;28;20084;-69
2022/05/03 10:40:32;;;;;;;24.92;19.02;;;;;;;;;;5031168;28;20085;-68
2022/05/03 10:43:05;;;;;;;22.75;17.30;;;;;;;;;;5032644;28;20087;-68
2022/05/03 10:45:46;;;;;;;21.85;17.15;;;;;;;;;;5029188;28;20056;-68
2022/05/03 10:48:23;;;;;;;21.42;16.88;;;;;;;;;;5026736;28;20543;-69
2022/05/03 10:50:50;;;;;;;21.65;16.42;;;;;;;;;;5031643;28;20133;-71
2022/05/03 10:53:18;;;;;;;17.80;14.77;;;;;;;;;;5032516;28;20053;-71
2022/05/03 10:56:01;;;;;;;17.17;14.50;;;;;;;;;;5032225;28;20499;-70
2022/05/03 10:58:28;;;;;;;17.35;14.88;;;;;;;;;;5030641;28;20050;-69
2022/05/03 11:01:11;;;;;;;16.65;13.05;;;;;;;;;;5031977;28;20052;-70
2022/05/03 11:03:38;;;;;;;15.57;13.02;;;;;;;;;;5030729;28;20085;-70
2022/05/03 11:06:32;;;;;;;16.10;13.80;;;;;;;;;;5032045;28;20054;-72
2022/05/03 11:11:33;;;;;;;13.50;11.35;;;;;;;;;;5031505;28;20056;-72
2022/05/03 11:14:00;;;;;;;14.48;12.80;;;;;;;;;;5031766;28;20053;-68
2022/05/03 11:16:26;;;;;;;14.77;13.18;;;;;;;;;;5031002;28;20052;-70
2022/05/03 11:18:53;;;;;;;17.70;14.18;;;;;;;;;;5031722;28;20081;-71
2022/05/03 11:21:20;;;;;;;20.45;15.73;;;;;;;;;;5034794;28;20561;-68
2022/05/03 11:23:51;;;;;;;17.85;15.27;;;;;;;;;;5035941;28;20519;-68
2022/05/03 11:26:19;;;;;;;20.52;16.70;;;;;;;;;;5034281;28;20177;-70
2022/05/03 11:28:47;;;;;;;23.42;18.63;;;;;;;;;;5035100;28;20054;-70
2022/05/03 11:31:15;;;;;;;22.02;16.48;;;;;;;;;;5033564;28;20060;-70
2022/05/03 11:33:58;;;;;;;26.80;21.08;;;;;;;;;;5035718;28;20057;-70
2022/05/03 11:36:25;;;;;;;34.22;23.60;;;;;;;;;;5034224;28;20061;-73
2022/05/03 11:38:54;;;;;;;33.72;24.27;;;;;;;;;;5035528;28;20053;-70
2022/05/03 11:41:21;;;;;;;29.42;22.15;;;;;;;;;;5039875;28;20050;-71
2022/05/03 11:43:47;;;;;;;26.67;17.75;;;;;;;;;;5035067;28;20053;-73
2022/05/03 11:46:15;;;;;;;25.10;18.55;;;;;;;;;;5032581;28;20050;-72
2022/05/03 11:48:41;;;;;;;31.63;20.35;;;;;;;;;;5035038;28;20137;-71
2022/05/03 11:56:44;;;;;;;29.50;20.13;;;;;;;;;;5033494;28;20533;-74
2022/05/03 11:59:11;;;;;;;31.55;21.15;;;;;;;;;;5033692;28;20049;-67
2022/05/03 12:01:38;;;;;;;32.90;21.45;;;;;;;;;;5034820;28;20058;-68
2022/05/03 12:04:05;;;;;;;27.75;19.60;;;;;;;;;;5034016;28;20057;-68
2022/05/03 12:06:43;;;;;;;28.10;20.52;;;;;;;;;;5034228;28;20064;-70
2022/05/03 12:09:16;;;;;;;28.85;19.80;;;;;;;;;;5034564;28;20057;-72
2022/05/03 12:14:42;;;;;;;30.13;19.67;;;;;;;;;;5014809;28;20050;-69
2022/05/03 12:17:08;;;;;;;28.88;17.23;;;;;;;;;;5033147;28;20056;-70
2022/05/03 12:19:36;;;;;;;26.20;17.63;;;;;;;;;;5034524;28;20616;-70
2022/05/03 12:22:12;;;;;;;27.35;17.20;;;;;;;;;;5034589;28;20054;-68
2022/05/03 12:24:41;;;;;;;25.83;18.15;;;;;;;;;;5035300;28;20053;-69
2022/05/03 12:27:11;;;;;;;24.30;16.73;;;;;;;;;;5032378;28;20050;-70
2022/05/03 12:29:44;;;;;;;25.65;16.00;;;;;;;;;;5034267;28;20074;-69
2022/05/03 12:32:12;;;;;;;24.40;14.73;;;;;;;;;;5032791;28;20516;-69
2022/05/03 12:34:42;;;;;;;26.27;15.75;;;;;;;;;;5034520;28;20547;-70
2022/05/03 12:37:09;;;;;;;22.40;14.35;;;;;;;;;;5033310;28;20054;-71
2022/05/03 12:39:36;;;;;;;24.23;14.68;;;;;;;;;;5034132;28;20480;-69
2022/05/03 12:42:10;;;;;;;21.95;14.25;;;;;;;;;;5033849;28;20133;-73
2022/05/03 12:44:46;;;;;;;20.95;12.18;;;;;;;;;;5034317;28;20597;-75
2022/05/03 12:47:13;;;;;;;20.73;12.55;;;;;;;;;;5033740;28;20053;-71
2022/05/03 12:49:40;;;;;;;21.80;14.70;;;;;;;;;;5032972;28;20050;-71
2022/05/03 12:52:06;;;;;;;19.58;12.85;;;;;;;;;;5032640;28;20508;-74
2022/05/03 12:54:33;;;;;;;24.50;14.25;;;;;;;;;;5028620;28;20587;-71
2022/05/03 12:59:44;;;;;;;24.20;12.95;;;;;;;;;;5022935;28;20064;-69
2022/05/03 13:02:10;;;;;;;18.30;12.25;;;;;;;;;;5033852;28;20054;-71
2022/05/03 13:04:37;;;;;;;20.27;11.48;;;;;;;;;;5032391;28;20046;-71
2022/05/03 13:07:04;;;;;;;19.25;11.52;;;;;;;;;;5028985;28;20049;-71
2022/05/03 13:09:31;;;;;;;18.00;11.32;;;;;;;;;;5031849;28;20053;-72
2022/05/03 13:11:58;;;;;;;25.50;11.50;;;;;;;;;;5033577;28;20060;-70
2022/05/03 13:14:26;;;;;;;21.92;10.80;;;;;;;;;;5032834;28;20061;-72
2022/05/03 13:16:52;;;;;;;20.75;11.23;;;;;;;;;;5033422;28;20510;-72
2022/05/03 13:19:19;;;;;;;17.13;9.95;;;;;;;;;;5033357;28;20050;-72
2022/05/03 13:21:45;;;;;;;18.50;10.13;;;;;;;;;;5033638;28;20045;-71
2022/05/03 13:24:12;;;;;;;19.40;10.43;;;;;;;;;;5029543;28;20050;-72
2022/05/03 13:26:40;;;;;;;21.95;11.35;;;;;;;;;;5028460;28;20057;-72
2022/05/03 13:29:08;;;;;;;23.70;10.07;;;;;;;;;;5033878;28;20494;-71
2022/05/03 13:31:35;;;;;;;17.63;10.55;;;;;;;;;;5033344;28;20070;-72
2022/05/03 13:34:01;;;;;;;17.70;10.38;;;;;;;;;;5029117;28;20053;-71
2022/05/03 13:41:59;;;;;;;18.80;10.57;;;;;;;;;;5030808;28;20268;-72
2022/05/03 13:44:25;;;;;;;17.52;10.95;;;;;;;;;;5033004;28;20056;-71
2022/05/03 13:46:52;;;;;;;18.55;11.48;;;;;;;;;;5032537;28;20531;-70
2022/05/03 13:49:20;;;;;;;19.30;10.32;;;;;;;;;;5033713;28;20498;-75
2022/05/03 13:51:46;;;;;;;21.23;11.15;;;;;;;;;;5032063;28;20503;-71
2022/05/03 13:54:13;;;;;;;20.08;10.35;;;;;;;;;;5031820;28;20429;-72
2022/05/03 13:56:39;;;;;;;24.13;11.20;;;;;;;;;;5030147;28;20058;-71
2022/05/03 13:59:05;;;;;;;21.10;11.02;;;;;;;;;;5022943;28;20061;-72
2022/05/03 14:01:33;;;;;;;22.38;11.05;;;;;;;;;;5029619;28;20061;-72
2022/05/03 14:04:02;;;;;;;23.65;11.10;;;;;;;;;;5032729;28;20513;-72
2022/05/03 14:06:28;;;;;;;23.17;10.98;;;;;;;;;;5014374;28;20064;-71
2022/05/03 14:08:55;;;;;;;22.35;10.43;;;;;;;;;;5032153;28;20058;-71
2022/05/03 14:11:21;;;;;;;21.00;10.48;;;;;;;;;;5032252;28;20051;-72
2022/05/03 14:13:48;;;;;;;23.70;11.73;;;;;;;;;;5032483;28;20165;-72
2022/05/03 14:16:16;;;;;;;22.35;10.68;;;;;;;;;;5033533;28;20060;-71
2022/05/03 14:18:43;;;;;;;23.30;10.60;;;;;;;;;;5021151;28;20085;-71
2022/05/03 14:21:10;;;;;;;18.85;10.65;;;;;;;;;;5020869;28;20049;-73
2022/05/03 14:23:37;;;;;;;23.00;10.82;;;;;;;;;;5022045;28;20090;-72
2022/05/03 14:26:04;;;;;;;21.48;10.82;;;;;;;;;;5028983;28;20054;-76
2022/05/03 14:28:32;;;;;;;17.45;9.73;;;;;;;;;;5025564;28;20054;-76
2022/05/03 14:30:58;;;;;;;14.98;9.70;;;;;;;;;;5030121;28;20056;-72
2022/05/03 14:33:25;;;;;;;22.60;11.32;;;;;;;;;;5033223;28;20053;-73
2022/05/03 14:35:51;;;;;;;18.40;10.25;;;;;;;;;;5029455;28;20054;-72
2022/05/03 14:38:17;;;;;;;18.35;10.30;;;;;;;;;;5025663;28;20060;-71
2022/05/03 14:40:44;;;;;;;16.33;9.68;;;;;;;;;;5030020;28;20454;-73
2022/05/03 14:43:10;;;;;;;21.65;9.05;;;;;;;;;;5031180;28;20528;-73
2022/05/03 14:45:37;;;;;;;15.85;9.35;;;;;;;;;;5032163;28;20053;-73
2022/05/03 14:48:03;;;;;;;17.42;9.38;;;;;;;;;;5029905;28;20058;-74
2022/05/03 14:50:30;;;;;;;18.92;9.82;;;;;;;;;;5031163;28;20050;-74
2022/05/03 14:52:56;;;;;;;19.48;9.32;;;;;;;;;;5033018;28;20109;-72
2022/05/03 14:55:23;;;;;;;19.15;9.50;;;;;;;;;;5032859;28;20520;-73
2022/05/03 15:03:32;;;;;;;14.38;8.10;;;;;;;;;;5036547;28;20133;-72
2022/05/03 15:05:58;;;;;;;18.50;8.35;;;;;;;;;;5035811;28;20056;-74
2022/05/03 15:08:25;;;;;;;17.40;8.10;;;;;;;;;;5035567;28;20494;-74
2022/05/03 15:10:51;;;;;;;15.75;7.90;;;;;;;;;;5030820;28;20058;-74
2022/05/03 15:13:17;;;;;;;19.75;8.30;;;;;;;;;;5033030;28;20049;-74
2022/05/03 15:15:45;;;;;;;14.40;8.00;;;;;;;;;;5033282;28;20486;-74
2022/05/03 15:18:12;;;;;;;17.17;7.88;;;;;;;;;;5033895;28;20046;-71
2022/05/03 15:20:43;;;;;;;18.48;7.57;;;;;;;;;;5019489;28;20086;-74
2022/05/03 15:25:54;;;;;;;12.47;7.93;;;;;;;;;;5034671;28;20054;-74
2022/05/03 15:28:27;;;;;;;15.85;7.85;;;;;;;;;;5033373;28;20576;-74
2022/05/03 15:30:54;;;;;;;14.45;7.18;;;;;;;;;;5035525;28;20050;-74
2022/05/03 15:33:21;;;;;;;9.68;6.22;;;;;;;;;;5033829;28;20050;-73
2022/05/03 15:35:47;;;;;;;13.55;6.18;;;;;;;;;;5031988;28;20061;-70